Time;durP1;ratioP1;P1;durP2;ratioP2;P2;SDS_P1;SDS_P2;PMS_P1;PMS_P2;Temp;Humidity;BMP_temperature;BMP_pressure;BME280_temperature;BME280_humidity;BME280_pressure;Samples;Min_cycle;Max_cycle;Signal;HPM_P1;HPM_P2
2022/08/14 00:02:23;;;;;;;16.30;13.48;;;;;;;;;;4973068;28;20046;-86
2022/08/14 00:04:48;;;;;;;17.75;13.30;;;;;;;;;;4976090;28;20117;-86
2022/08/14 00:07:13;;;;;;;17.40;13.82;;;;;;;;;;4973969;28;20030;-87
2022/08/14 00:09:39;;;;;;;15.02;12.07;;;;;;;;;;4974540;28;20022;-85
2022/08/14 00:12:05;;;;;;;19.98;13.77;;;;;;;;;;4982637;28;20146;-85
2022/08/14 00:14:31;;;;;;;15.35;13.45;;;;;;;;;;4986206;28;20030;-85
2022/08/14 00:16:56;;;;;;;15.50;13.13;;;;;;;;;;4972153;28;20030;-86
2022/08/14 00:19:22;;;;;;;16.58;13.27;;;;;;;;;;4975651;28;20442;-86
2022/08/14 00:21:49;;;;;;;19.15;13.57;;;;;;;;;;4975211;28;20536;-86
2022/08/14 00:24:14;;;;;;;16.20;13.18;;;;;;;;;;4977762;28;20030;-85
2022/08/14 00:26:40;;;;;;;15.30;13.55;;;;;;;;;;4983559;28;20050;-85
2022/08/14 00:29:05;;;;;;;18.55;12.88;;;;;;;;;;4975725;28;20041;-85
2022/08/14 00:31:30;;;;;;;15.25;13.13;;;;;;;;;;4983820;28;20069;-85
2022/08/14 00:33:56;;;;;;;16.77;14.18;;;;;;;;;;4992327;28;20043;-86
2022/08/14 00:36:22;;;;;;;17.05;14.25;;;;;;;;;;4970937;28;20039;-86
2022/08/14 00:38:48;;;;;;;15.25;12.55;;;;;;;;;;4966605;28;20561;-86
2022/08/14 00:41:13;;;;;;;16.05;13.27;;;;;;;;;;4985318;28;20093;-86
2022/08/14 00:43:38;;;;;;;16.73;13.57;;;;;;;;;;4974240;28;20045;-86
2022/08/14 00:46:06;;;;;;;15.43;13.45;;;;;;;;;;4970651;28;20034;-86
2022/08/14 00:48:31;;;;;;;17.02;13.43;;;;;;;;;;4972959;28;20392;-86
2022/08/14 00:50:57;;;;;;;14.25;11.63;;;;;;;;;;4978781;28;20030;-85
2022/08/14 00:53:24;;;;;;;13.98;11.23;;;;;;;;;;4984736;28;20034;-86
2022/08/14 00:55:50;;;;;;;12.35;10.30;;;;;;;;;;4976555;28;20062;-86
2022/08/14 00:58:32;;;;;;;11.63;10.43;;;;;;;;;;4981051;28;20117;-86
2022/08/14 01:01:17;;;;;;;12.57;10.10;;;;;;;;;;4981101;28;20035;-86
2022/08/14 01:03:43;;;;;;;11.55;9.80;;;;;;;;;;4997784;28;20672;-86
2022/08/14 01:06:11;;;;;;;12.23;10.00;;;;;;;;;;4977376;28;20058;-86
2022/08/14 01:08:37;;;;;;;10.63;8.93;;;;;;;;;;4976016;28;20040;-86
2022/08/14 01:11:04;;;;;;;12.70;9.07;;;;;;;;;;4977988;28;20038;-85
2022/08/14 01:13:32;;;;;;;12.75;9.07;;;;;;;;;;4978752;28;20502;-85
2022/08/14 01:16:00;;;;;;;11.65;9.10;;;;;;;;;;4975819;28;20398;-87
2022/08/14 01:21:13;;;;;;;9.25;8.23;;;;;;;;;;4993318;28;20037;-87
2022/08/14 01:23:41;;;;;;;9.77;8.30;;;;;;;;;;4973656;28;20041;-85
2022/08/14 01:26:07;;;;;;;10.05;8.00;;;;;;;;;;4977117;28;20039;-86
2022/08/14 01:28:37;;;;;;;11.77;8.50;;;;;;;;;;4976108;28;20035;-86
2022/08/14 01:31:07;;;;;;;11.32;8.82;;;;;;;;;;4973888;28;20497;-86
2022/08/14 01:33:39;;;;;;;12.13;8.90;;;;;;;;;;4976209;28;20030;-86
2022/08/14 01:36:06;;;;;;;13.20;8.73;;;;;;;;;;4995538;28;20581;-86
2022/08/14 01:38:34;;;;;;;9.65;8.25;;;;;;;;;;4985973;28;20039;-86
2022/08/14 01:41:01;;;;;;;9.75;8.30;;;;;;;;;;4995623;28;20037;-86
2022/08/14 01:43:29;;;;;;;9.73;8.73;;;;;;;;;;4981810;28;20041;-86
2022/08/14 01:45:56;;;;;;;9.98;8.65;;;;;;;;;;4992031;28;20047;-87
2022/08/14 01:48:22;;;;;;;12.90;8.82;;;;;;;;;;4987050;28;20042;-87
2022/08/14 01:50:48;;;;;;;10.07;8.60;;;;;;;;;;4993129;28;20047;-87
2022/08/14 01:53:14;;;;;;;11.10;8.48;;;;;;;;;;4985979;28;20038;-86
2022/08/14 01:55:39;;;;;;;12.20;8.80;;;;;;;;;;4978319;28;20141;-87
2022/08/14 01:58:05;;;;;;;10.48;8.63;;;;;;;;;;4974967;28;20035;-87
2022/08/14 02:00:30;;;;;;;10.77;8.68;;;;;;;;;;4991862;28;20031;-87
2022/08/14 02:02:57;;;;;;;12.38;8.95;;;;;;;;;;4979705;28;20117;-87
2022/08/14 02:05:28;;;;;;;13.15;8.55;;;;;;;;;;4985162;28;20039;-87
2022/08/14 02:07:54;;;;;;;12.85;9.98;;;;;;;;;;4972597;28;20040;-87
2022/08/14 02:10:20;;;;;;;10.95;8.60;;;;;;;;;;4977547;28;20580;-86
2022/08/14 02:12:45;;;;;;;11.10;8.98;;;;;;;;;;4978428;28;20510;-85
2022/08/14 02:15:11;;;;;;;11.15;8.82;;;;;;;;;;4975870;28;20034;-87
2022/08/14 02:17:37;;;;;;;10.32;8.70;;;;;;;;;;4976505;28;20080;-87
2022/08/14 02:20:03;;;;;;;10.00;8.60;;;;;;;;;;4979661;28;20069;-87
2022/08/14 02:22:29;;;;;;;12.23;9.27;;;;;;;;;;4976634;28;20032;-87
2022/08/14 02:24:54;;;;;;;11.18;9.30;;;;;;;;;;4986170;28;20051;-86
2022/08/14 02:27:20;;;;;;;13.90;9.38;;;;;;;;;;4994561;28;20343;-86
2022/08/14 02:29:46;;;;;;;13.88;8.90;;;;;;;;;;4977577;28;20056;-86
2022/08/14 02:32:12;;;;;;;12.82;9.55;;;;;;;;;;4974632;28;20049;-86
2022/08/14 02:34:37;;;;;;;10.23;8.95;;;;;;;;;;4985473;28;20045;-86
2022/08/14 02:37:06;;;;;;;12.02;9.15;;;;;;;;;;4994366;28;20034;-86
2022/08/14 02:39:33;;;;;;;9.77;8.45;;;;;;;;;;4974314;28;20038;-86
2022/08/14 02:41:59;;;;;;;;;;;;;;;;;;4974789;28;20030;-86
2022/08/14 02:44:24;;;;;;;13.30;10.43;;;;;;;;;;4974996;28;19940;-86
2022/08/14 02:46:51;;;;;;;11.27;9.30;;;;;;;;;;4972661;28;20041;-86
2022/08/14 02:49:17;;;;;;;11.40;8.98;;;;;;;;;;4991452;28;20607;-86
2022/08/14 02:51:47;;;;;;;11.90;9.30;;;;;;;;;;4985673;28;20066;-86
2022/08/14 02:54:13;;;;;;;11.27;8.90;;;;;;;;;;4994337;28;20056;-86
2022/08/14 02:56:38;;;;;;;10.48;9.02;;;;;;;;;;4988466;28;20029;-86
2022/08/14 02:59:05;;;;;;;11.05;9.85;;;;;;;;;;4976661;28;20044;-87
2022/08/14 03:01:31;;;;;;;11.30;9.27;;;;;;;;;;4990663;28;20044;-86
2022/08/14 03:03:56;;;;;;;11.15;9.50;;;;;;;;;;4977514;28;20276;-88
2022/08/14 03:06:24;;;;;;;13.00;9.82;;;;;;;;;;4973939;28;20070;-88
2022/08/14 03:08:53;;;;;;;12.38;8.95;;;;;;;;;;4972169;28;20185;-86
2022/08/14 03:11:20;;;;;;;14.82;9.82;;;;;;;;;;4988718;28;20354;-87
2022/08/14 03:13:48;;;;;;;11.45;9.18;;;;;;;;;;4994676;28;20117;-87
2022/08/14 03:16:17;;;;;;;14.05;9.35;;;;;;;;;;4993164;28;20038;-87
2022/08/14 03:18:44;;;;;;;11.00;9.13;;;;;;;;;;4971002;28;20046;-87
2022/08/14 03:21:13;;;;;;;12.63;9.97;;;;;;;;;;4975277;28;20522;-87
2022/08/14 03:23:44;;;;;;;11.15;9.15;;;;;;;;;;4975824;28;20277;-86
2022/08/14 03:26:13;;;;;;;12.27;9.30;;;;;;;;;;4991626;28;20040;-87
2022/08/14 03:28:40;;;;;;;10.23;8.98;;;;;;;;;;4978288;28;20496;-86
2022/08/14 03:31:07;;;;;;;11.18;8.80;;;;;;;;;;4991934;28;20038;-86
2022/08/14 03:33:36;;;;;;;11.65;9.52;;;;;;;;;;4973553;28;20034;-86
2022/08/14 03:36:12;;;;;;;11.88;9.45;;;;;;;;;;4973384;28;20026;-86
2022/08/14 03:38:42;;;;;;;10.60;9.25;;;;;;;;;;4985633;28;20046;-86
2022/08/14 03:41:15;;;;;;;12.18;9.70;;;;;;;;;;4973638;28;20038;-86
2022/08/14 03:43:51;;;;;;;12.95;10.60;;;;;;;;;;4992729;28;20077;-86
2022/08/14 03:46:17;;;;;;;12.90;9.20;;;;;;;;;;4986156;28;20517;-86
2022/08/14 03:48:44;;;;;;;10.65;9.52;;;;;;;;;;4984823;28;20033;-86
2022/08/14 03:51:12;;;;;;;11.38;9.60;;;;;;;;;;4979295;28;20030;-86
2022/08/14 03:53:40;;;;;;;13.35;9.68;;;;;;;;;;4976669;28;20042;-85
2022/08/14 03:56:08;;;;;;;11.05;9.38;;;;;;;;;;4984196;28;20031;-86
2022/08/14 03:58:34;;;;;;;11.48;9.40;;;;;;;;;;4983673;28;20038;-86
2022/08/14 04:00:59;;;;;;;10.82;9.35;;;;;;;;;;4973946;28;20031;-86
2022/08/14 04:03:25;;;;;;;13.43;9.60;;;;;;;;;;4973060;28;20042;-86
2022/08/14 04:05:52;;;;;;;10.98;9.15;;;;;;;;;;4987721;28;20039;-87
2022/08/14 04:08:18;;;;;;;10.47;9.23;;;;;;;;;;4976171;28;20038;-86
2022/08/14 04:10:45;;;;;;;10.43;8.70;;;;;;;;;;4973680;28;20030;-86
2022/08/14 04:13:10;;;;;;;10.57;9.48;;;;;;;;;;4975346;28;20038;-86
2022/08/14 04:15:36;;;;;;;12.13;10.02;;;;;;;;;;4981920;28;20042;-87
2022/08/14 04:18:07;;;;;;;10.93;9.30;;;;;;;;;;4988276;28;20397;-86
2022/08/14 04:20:36;;;;;;;10.95;9.02;;;;;;;;;;4990417;28;20046;-87
2022/08/14 04:23:05;;;;;;;11.40;9.13;;;;;;;;;;4998697;28;20026;-87
2022/08/14 04:25:32;;;;;;;11.85;9.65;;;;;;;;;;4988433;28;20057;-87
2022/08/14 04:27:59;;;;;;;11.68;9.20;;;;;;;;;;4989218;28;20390;-87
2022/08/14 04:30:27;;;;;;;10.50;9.32;;;;;;;;;;4990349;28;20141;-85
2022/08/14 04:32:54;;;;;;;11.00;8.45;;;;;;;;;;4992123;28;20049;-87
2022/08/14 04:35:20;;;;;;;11.25;9.10;;;;;;;;;;4974835;28;20038;-87
2022/08/14 04:45:58;;;;;;;10.68;8.73;;;;;;;;;;5011184;28;20044;-88
2022/08/14 04:48:29;;;;;;;11.98;8.57;;;;;;;;;;4985198;28;20116;-86
2022/08/14 04:50:55;;;;;;;9.95;8.52;;;;;;;;;;4982225;28;20105;-87
2022/08/14 04:53:26;;;;;;;10.48;8.48;;;;;;;;;;5000952;28;20113;-87
2022/08/14 04:55:52;;;;;;;9.80;8.43;;;;;;;;;;4967369;28;20038;-87
2022/08/14 04:58:25;;;;;;;10.30;8.07;;;;;;;;;;4975301;28;20049;-87
2022/08/14 05:00:53;;;;;;;9.88;8.73;;;;;;;;;;4964866;28;20145;-88
2022/08/14 05:03:20;;;;;;;10.35;8.82;;;;;;;;;;4994272;28;20038;-87
2022/08/14 05:05:56;;;;;;;12.85;8.98;;;;;;;;;;4977651;28;20132;-87
2022/08/14 05:08:22;;;;;;;10.93;8.57;;;;;;;;;;4985214;28;20108;-86
2022/08/14 05:10:54;;;;;;;11.02;9.30;;;;;;;;;;4977918;28;20037;-85
2022/08/14 05:13:21;;;;;;;10.98;8.57;;;;;;;;;;4974548;28;20038;-86
2022/08/14 05:15:47;;;;;;;9.87;8.87;;;;;;;;;;4985704;28;20556;-88
2022/08/14 05:18:16;;;;;;;10.40;8.45;;;;;;;;;;4987268;28;20766;-88
2022/08/14 05:20:44;;;;;;;9.93;8.05;;;;;;;;;;4994441;28;20044;-87
2022/08/14 05:23:10;;;;;;;11.20;8.10;;;;;;;;;;4978973;28;20520;-87
2022/08/14 05:25:36;;;;;;;9.05;8.15;;;;;;;;;;4964898;28;20720;-87
2022/08/14 05:28:17;;;;;;;10.15;8.18;;;;;;;;;;4972908;28;20041;-87
2022/08/14 05:30:45;;;;;;;11.07;8.40;;;;;;;;;;4973083;28;20033;-86
2022/08/14 05:33:11;;;;;;;10.60;8.30;;;;;;;;;;4981540;28;20069;-87
2022/08/14 05:35:37;;;;;;;10.23;7.93;;;;;;;;;;4979087;28;20104;-87
2022/08/14 05:38:11;;;;;;;8.23;7.32;;;;;;;;;;4967820;28;20042;-87
2022/08/14 05:40:37;;;;;;;8.63;7.13;;;;;;;;;;5004812;28;20501;-86
2022/08/14 05:43:02;;;;;;;8.63;6.90;;;;;;;;;;4992038;28;20042;-86
2022/08/14 05:45:28;;;;;;;9.05;7.63;;;;;;;;;;4980984;28;20394;-87
2022/08/14 05:47:53;;;;;;;9.65;6.82;;;;;;;;;;4978362;28;20116;-87
2022/08/14 05:50:19;;;;;;;8.73;6.78;;;;;;;;;;4979180;28;20037;-87
2022/08/14 05:52:48;;;;;;;7.82;6.43;;;;;;;;;;4968215;28;20061;-87
2022/08/14 05:55:14;;;;;;;6.80;6.07;;;;;;;;;;5011617;28;20046;-88
2022/08/14 05:58:03;;;;;;;6.72;5.88;;;;;;;;;;4982168;28;20040;-89
2022/08/14 06:00:32;;;;;;;7.63;6.38;;;;;;;;;;4995548;28;20037;-86
2022/08/14 06:02:58;;;;;;;8.15;6.45;;;;;;;;;;4985897;28;20042;-88
2022/08/14 06:05:24;;;;;;;8.65;5.82;;;;;;;;;;4995147;28;20041;-89
2022/08/14 06:07:49;;;;;;;8.45;6.13;;;;;;;;;;4979113;28;20389;-88
2022/08/14 06:10:15;;;;;;;7.97;5.97;;;;;;;;;;4992960;28;20041;-87
2022/08/14 06:12:41;;;;;;;8.40;5.88;;;;;;;;;;4985072;28;20045;-88
2022/08/14 06:15:08;;;;;;;6.95;6.10;;;;;;;;;;4976194;28;20101;-88
2022/08/14 06:17:47;;;;;;;10.68;6.30;;;;;;;;;;4977873;28;20104;-88
2022/08/14 06:20:13;;;;;;;8.38;5.97;;;;;;;;;;4994138;28;20062;-89
2022/08/14 06:22:41;;;;;;;8.23;5.72;;;;;;;;;;4985494;28;20056;-89
2022/08/14 06:25:08;;;;;;;8.25;6.03;;;;;;;;;;4993181;28;20133;-88
2022/08/14 06:27:38;;;;;;;9.63;6.45;;;;;;;;;;4971548;28;20042;-88
2022/08/14 06:30:06;;;;;;;8.80;5.78;;;;;;;;;;4988516;28;20038;-88
2022/08/14 06:32:34;;;;;;;7.88;6.22;;;;;;;;;;4973905;28;20045;-89
2022/08/14 06:35:01;;;;;;;6.07;5.40;;;;;;;;;;4975120;28;20092;-88
2022/08/14 06:37:26;;;;;;;8.32;6.40;;;;;;;;;;4989691;28;20038;-88
2022/08/14 06:39:52;;;;;;;9.63;6.15;;;;;;;;;;4974308;28;20048;-88
2022/08/14 06:42:17;;;;;;;7.55;6.43;;;;;;;;;;4970275;28;20038;-89
2022/08/14 06:44:43;;;;;;;7.75;5.60;;;;;;;;;;4977302;28;20133;-90
2022/08/14 06:47:09;;;;;;;7.85;5.82;;;;;;;;;;4985400;28;20033;-91
2022/08/14 06:49:36;;;;;;;9.35;6.47;;;;;;;;;;4990222;28;20042;-88
2022/08/14 06:52:02;;;;;;;6.67;5.57;;;;;;;;;;4992638;28;20040;-88
2022/08/14 06:54:27;;;;;;;7.45;5.72;;;;;;;;;;4975117;28;20519;-89
2022/08/14 06:56:53;;;;;;;8.35;5.70;;;;;;;;;;4975508;28;20039;-88
2022/08/14 06:59:19;;;;;;;6.93;5.32;;;;;;;;;;4993534;28;20034;-90
2022/08/14 07:07:11;;;;;;;6.53;5.18;;;;;;;;;;4998358;28;20041;-89
2022/08/14 07:09:37;;;;;;;8.10;5.38;;;;;;;;;;4974940;28;20046;-90
2022/08/14 07:12:03;;;;;;;8.60;5.53;;;;;;;;;;4974316;28;20034;-89
2022/08/14 07:14:28;;;;;;;8.85;5.38;;;;;;;;;;4979099;28;20034;-90
2022/08/14 07:16:53;;;;;;;6.82;5.30;;;;;;;;;;4974536;28;20048;-90
2022/08/14 07:19:19;;;;;;;6.47;5.45;;;;;;;;;;4999283;28;20045;-90
2022/08/14 07:21:44;;;;;;;7.20;4.82;;;;;;;;;;4996984;28;20046;-90
2022/08/14 07:24:31;;;;;;;7.00;5.07;;;;;;;;;;4978174;28;20493;-90
2022/08/14 07:27:05;;;;;;;7.20;5.25;;;;;;;;;;4959324;28;20506;-91
2022/08/14 07:29:31;;;;;;;10.20;5.25;;;;;;;;;;4968072;28;20505;-92
2022/08/14 07:31:56;;;;;;;8.13;4.80;;;;;;;;;;4978003;28;20142;-91
2022/08/14 07:34:24;;;;;;;7.60;5.10;;;;;;;;;;4976213;28;20035;-89
2022/08/14 07:36:49;;;;;;;7.47;5.20;;;;;;;;;;4959842;28;20062;-89
2022/08/14 07:39:15;;;;;;;9.20;5.50;;;;;;;;;;4948065;28;20064;-89
2022/08/14 07:41:40;;;;;;;7.18;4.78;;;;;;;;;;4973765;28;20042;-91
2022/08/14 07:44:10;;;;;;;6.40;5.03;;;;;;;;;;4958442;28;20066;-90
2022/08/14 07:47:09;;;;;;;6.47;4.95;;;;;;;;;;4955447;28;20047;-89
2022/08/14 07:50:03;;;;;;;6.88;5.20;;;;;;;;;;4951311;28;20502;-90
2022/08/14 07:52:31;;;;;;;5.93;5.20;;;;;;;;;;4956768;28;20039;-90
2022/08/14 07:54:59;;;;;;;6.32;4.85;;;;;;;;;;4972184;28;20482;-90
2022/08/14 07:57:26;;;;;;;7.30;5.00;;;;;;;;;;4921930;28;20034;-90
2022/08/14 08:00:07;;;;;;;8.15;4.97;;;;;;;;;;4972466;28;20044;-88
2022/08/14 08:02:32;;;;;;;6.55;4.90;;;;;;;;;;4949854;28;20461;-91
2022/08/14 08:04:59;;;;;;;5.95;4.60;;;;;;;;;;4976877;28;20060;-91
2022/08/14 08:07:26;;;;;;;7.78;4.80;;;;;;;;;;4969983;28;20041;-90
2022/08/14 08:09:56;;;;;;;5.50;4.72;;;;;;;;;;4980129;28;20030;-90
2022/08/14 08:12:24;;;;;;;5.70;4.40;;;;;;;;;;4977611;28;20035;-90
2022/08/14 08:14:50;;;;;;;8.38;4.50;;;;;;;;;;4958446;28;20034;-89
2022/08/14 08:17:19;;;;;;;7.05;4.35;;;;;;;;;;4981288;28;20029;-91
2022/08/14 08:19:46;;;;;;;6.10;4.30;;;;;;;;;;4989059;28;20052;-88
2022/08/14 08:22:11;;;;;;;5.25;4.15;;;;;;;;;;4976304;28;20037;-91
2022/08/14 08:24:37;;;;;;;5.93;4.00;;;;;;;;;;4981508;28;20413;-87
2022/08/14 08:27:13;;;;;;;6.47;4.07;;;;;;;;;;4970924;28;20038;-87
2022/08/14 08:29:39;;;;;;;7.93;4.50;;;;;;;;;;4960594;28;20030;-88
2022/08/14 08:32:04;;;;;;;6.38;4.57;;;;;;;;;;4972888;28;20388;-87
2022/08/14 08:34:29;;;;;;;5.55;3.97;;;;;;;;;;4991617;28;20029;-87
2022/08/14 08:36:57;;;;;;;4.95;4.20;;;;;;;;;;4994161;28;20064;-88
2022/08/14 08:39:22;;;;;;;4.90;3.78;;;;;;;;;;5009448;28;20034;-88
2022/08/14 08:41:47;;;;;;;5.18;3.92;;;;;;;;;;4979065;28;20099;-88
2022/08/14 08:44:13;;;;;;;5.88;4.00;;;;;;;;;;4969995;28;20097;-90
2022/08/14 08:46:42;;;;;;;4.57;3.60;;;;;;;;;;4988481;28;20354;-88
2022/08/14 08:49:09;;;;;;;6.38;4.18;;;;;;;;;;4979585;28;20097;-84
2022/08/14 08:51:38;;;;;;;6.18;3.60;;;;;;;;;;4989958;28;20049;-84
2022/08/14 08:54:07;;;;;;;4.88;3.63;;;;;;;;;;4990230;28;20053;-84
2022/08/14 08:56:33;;;;;;;4.80;3.53;;;;;;;;;;4976884;28;20042;-84
2022/08/14 08:58:59;;;;;;;5.77;3.50;;;;;;;;;;4986426;28;20559;-84
2022/08/14 09:01:29;;;;;;;4.77;3.50;;;;;;;;;;4976588;28;20054;-85
2022/08/14 09:04:04;;;;;;;5.18;3.30;;;;;;;;;;4991059;28;20572;-85
2022/08/14 09:06:30;;;;;;;4.93;3.70;;;;;;;;;;4998257;28;20033;-84
2022/08/14 09:08:55;;;;;;;4.60;3.67;;;;;;;;;;4990363;28;20382;-83
2022/08/14 09:11:23;;;;;;;4.63;3.20;;;;;;;;;;4974910;28;20389;-84
2022/08/14 09:13:50;;;;;;;5.22;3.53;;;;;;;;;;4978746;28;20038;-84
2022/08/14 09:16:18;;;;;;;;;;;;;;;;;;4975500;28;20061;-82
2022/08/14 09:18:43;;;;;;;4.57;3.50;;;;;;;;;;4978146;28;19952;-84
2022/08/14 09:21:09;;;;;;;4.43;3.13;;;;;;;;;;4998259;28;20142;-82
2022/08/14 09:23:35;;;;;;;5.13;3.10;;;;;;;;;;4984818;28;20444;-84
2022/08/14 09:26:00;;;;;;;4.13;2.75;;;;;;;;;;4982995;28;20044;-79
2022/08/14 09:28:26;;;;;;;5.67;3.10;;;;;;;;;;4982613;28;20120;-83
2022/08/14 09:30:55;;;;;;;4.77;2.90;;;;;;;;;;4987228;28;20022;-84
2022/08/14 09:34:05;;;;;;;4.45;2.83;;;;;;;;;;5008114;28;20552;-82
2022/08/14 09:36:58;;;;;;;4.07;2.83;;;;;;;;;;4965945;28;20038;-83
2022/08/14 09:39:41;;;;;;;4.60;2.97;;;;;;;;;;4941398;28;20503;-83
2022/08/14 09:42:15;;;;;;;5.57;2.92;;;;;;;;;;4956294;28;20043;-78
2022/08/14 09:44:55;;;;;;;4.82;2.72;;;;;;;;;;4969987;28;20047;-81
2022/08/14 09:47:52;;;;;;;5.60;3.22;;;;;;;;;;4959460;28;20039;-82
2022/08/14 09:50:28;;;;;;;5.97;3.10;;;;;;;;;;4947215;28;20039;-84
2022/08/14 09:52:53;;;;;;;5.00;2.70;;;;;;;;;;4967168;28;20036;-83
2022/08/14 09:55:20;;;;;;;5.90;2.83;;;;;;;;;;4956700;28;20842;-83
2022/08/14 09:57:48;;;;;;;4.03;2.70;;;;;;;;;;4955335;28;20035;-82
2022/08/14 10:00:15;;;;;;;6.57;2.65;;;;;;;;;;4975103;28;20035;-82
2022/08/14 10:02:51;;;;;;;6.28;2.53;;;;;;;;;;4970090;28;20101;-84
2022/08/14 10:05:28;;;;;;;5.05;2.28;;;;;;;;;;4939715;28;20126;-84
2022/08/14 10:07:53;;;;;;;5.15;2.40;;;;;;;;;;4952143;28;20385;-85
2022/08/14 10:10:37;;;;;;;4.03;2.17;;;;;;;;;;4954696;28;20100;-80
2022/08/14 10:13:04;;;;;;;4.50;2.58;;;;;;;;;;4986880;28;20046;-84
2022/08/14 10:15:31;;;;;;;4.53;2.40;;;;;;;;;;4972010;28;20037;-86
2022/08/14 10:18:11;;;;;;;4.22;2.10;;;;;;;;;;4992633;28;20367;-87
2022/08/14 10:20:43;;;;;;;4.22;2.30;;;;;;;;;;4983204;28;20436;-82
2022/08/14 10:23:17;;;;;;;5.60;2.17;;;;;;;;;;4972458;28;20037;-84
2022/08/14 10:25:49;;;;;;;5.80;2.30;;;;;;;;;;4996983;28;20113;-86
2022/08/14 10:28:18;;;;;;;6.25;2.30;;;;;;;;;;4997110;28;20061;-84
2022/08/14 10:30:47;;;;;;;3.22;1.90;;;;;;;;;;4983030;28;20104;-85
2022/08/14 10:33:31;;;;;;;4.25;1.92;;;;;;;;;;5013873;28;20037;-85
2022/08/14 10:36:01;;;;;;;3.88;1.70;;;;;;;;;;4993970;28;20047;-85
2022/08/14 10:38:33;;;;;;;5.35;1.80;;;;;;;;;;4994568;28;20033;-82
2022/08/14 10:41:17;;;;;;;5.50;1.80;;;;;;;;;;4945843;28;20049;-84
2022/08/14 10:44:08;;;;;;;4.20;1.60;;;;;;;;;;4993751;28;20041;-87
2022/08/14 10:47:08;;;;;;;3.90;1.73;;;;;;;;;;4975937;28;20108;-79
2022/08/14 10:49:36;;;;;;;3.45;1.33;;;;;;;;;;4966648;28;20041;-77
2022/08/14 10:52:07;;;;;;;3.08;1.58;;;;;;;;;;4995304;28;20033;-77
2022/08/14 10:55:07;;;;;;;3.45;1.55;;;;;;;;;;4976943;28;20031;-76
2022/08/14 10:57:34;;;;;;;2.90;1.50;;;;;;;;;;4995209;28;20037;-77
2022/08/14 11:00:13;;;;;;;3.42;1.38;;;;;;;;;;5011664;28;20504;-80
2022/08/14 11:02:41;;;;;;;2.95;1.35;;;;;;;;;;4995370;28;20571;-78
2022/08/14 11:05:07;;;;;;;3.47;1.40;;;;;;;;;;5013286;28;20505;-76
2022/08/14 11:07:38;;;;;;;3.17;1.60;;;;;;;;;;4995617;28;20035;-78
2022/08/14 11:10:13;;;;;;;3.97;1.67;;;;;;;;;;4996388;28;20040;-79
2022/08/14 11:12:46;;;;;;;3.10;1.50;;;;;;;;;;4972803;28;20080;-78
2022/08/14 11:15:17;;;;;;;2.90;1.55;;;;;;;;;;4965067;28;20120;-78
2022/08/14 11:17:45;;;;;;;4.40;1.50;;;;;;;;;;4996120;28;20041;-78
2022/08/14 11:20:10;;;;;;;4.03;1.60;;;;;;;;;;4997023;28;20120;-78
2022/08/14 11:22:41;;;;;;;2.95;1.60;;;;;;;;;;5015061;28;20117;-85
2022/08/14 11:25:09;;;;;;;4.72;1.70;;;;;;;;;;4960312;28;20108;-86
2022/08/14 11:27:37;;;;;;;3.15;1.70;;;;;;;;;;4973948;28;20059;-78
2022/08/14 11:30:16;;;;;;;2.95;1.90;;;;;;;;;;4979275;28;20030;-78
2022/08/14 11:32:49;;;;;;;4.07;1.85;;;;;;;;;;4981050;28;20386;-77
2022/08/14 11:35:19;;;;;;;4.70;1.70;;;;;;;;;;4992542;28;20027;-79
2022/08/14 11:38:00;;;;;;;4.95;1.75;;;;;;;;;;4967913;28;20386;-79
2022/08/14 11:40:29;;;;;;;5.03;1.67;;;;;;;;;;4989283;28;20054;-77
2022/08/14 11:42:55;;;;;;;3.15;1.80;;;;;;;;;;4979922;28;20052;-78
2022/08/14 11:45:28;;;;;;;3.60;1.70;;;;;;;;;;4989709;28;20045;-78
2022/08/14 11:47:55;;;;;;;3.72;1.90;;;;;;;;;;4990782;28;20088;-78
2022/08/14 11:50:25;;;;;;;;;;;;;;;;;;4994278;28;20041;-78
2022/08/14 11:52:55;;;;;;;4.63;1.80;;;;;;;;;;4980926;28;19921;-78
2022/08/14 11:55:20;;;;;;;4.47;2.00;;;;;;;;;;4992197;28;20045;-78
2022/08/14 11:57:46;;;;;;;3.80;1.90;;;;;;;;;;5014936;28;20042;-78
2022/08/14 12:00:15;;;;;;;4.83;1.67;;;;;;;;;;4986516;28;20038;-78
2022/08/14 12:02:52;;;;;;;4.97;2.08;;;;;;;;;;4994134;28;20045;-78
2022/08/14 12:05:38;;;;;;;3.88;1.70;;;;;;;;;;4987003;28;20037;-79
2022/08/14 12:08:07;;;;;;;4.38;2.38;;;;;;;;;;4984967;28;20566;-79
2022/08/14 12:10:34;;;;;;;3.72;1.90;;;;;;;;;;4989312;28;20117;-79
2022/08/14 12:13:20;;;;;;;5.15;2.17;;;;;;;;;;4942740;28;20035;-79
2022/08/14 12:15:56;;;;;;;5.38;2.38;;;;;;;;;;4965649;28;20523;-78
2022/08/14 12:18:31;;;;;;;4.93;2.40;;;;;;;;;;4993994;28;20030;-79
2022/08/14 12:20:56;;;;;;;3.53;2.15;;;;;;;;;;4995310;28;20041;-77
2022/08/14 12:23:24;;;;;;;3.73;2.20;;;;;;;;;;4994603;28;20091;-78
2022/08/14 12:26:01;;;;;;;5.38;2.20;;;;;;;;;;4992238;28;20057;-80
2022/08/14 12:28:27;;;;;;;5.03;2.33;;;;;;;;;;4958696;28;20061;-78
2022/08/14 12:30:53;;;;;;;5.05;2.75;;;;;;;;;;4995959;28;20030;-79
2022/08/14 12:33:58;;;;;;;4.55;2.65;;;;;;;;;;4998600;28;20385;-78
2022/08/14 12:36:26;;;;;;;4.18;2.63;;;;;;;;;;4977898;28;20096;-79
2022/08/14 12:38:53;;;;;;;5.38;2.67;;;;;;;;;;4977899;28;20034;-79
2022/08/14 12:41:22;;;;;;;4.95;2.67;;;;;;;;;;4998523;28;20033;-80
2022/08/14 12:43:55;;;;;;;3.38;2.50;;;;;;;;;;4980873;28;20137;-79
2022/08/14 12:46:30;;;;;;;5.13;2.47;;;;;;;;;;4977078;28;20046;-79
2022/08/14 12:49:05;;;;;;;3.70;2.60;;;;;;;;;;4986747;28;20038;-78
2022/08/14 12:51:32;;;;;;;5.05;2.70;;;;;;;;;;4993075;28;20468;-78
2022/08/14 12:53:58;;;;;;;;;;;;;;;;;;4993401;28;20083;-78
2022/08/14 12:56:24;;;;;;;4.03;2.73;;;;;;;;;;4991498;28;20342;-79
2022/08/14 12:58:57;;;;;;;5.40;2.80;;;;;;;;;;5003031;28;20038;-79
2022/08/14 13:01:26;;;;;;;6.82;2.50;;;;;;;;;;5015017;28;20506;-79
2022/08/14 13:04:04;;;;;;;4.60;2.45;;;;;;;;;;4972078;28;20038;-77
2022/08/14 13:06:30;;;;;;;4.30;2.67;;;;;;;;;;5002324;28;20512;-79
2022/08/14 13:08:57;;;;;;;5.40;2.97;;;;;;;;;;4974712;28;20494;-79
2022/08/14 13:11:25;;;;;;;5.13;2.80;;;;;;;;;;4979732;28;20042;-79
2022/08/14 13:13:56;;;;;;;4.32;2.55;;;;;;;;;;4999002;28;20037;-79
2022/08/14 13:16:21;;;;;;;5.18;2.60;;;;;;;;;;4975583;28;20042;-79
2022/08/14 13:18:48;;;;;;;5.03;2.58;;;;;;;;;;4993930;28;20120;-78
2022/08/14 13:21:17;;;;;;;3.63;2.42;;;;;;;;;;4992325;28;20060;-79
2022/08/14 13:23:43;;;;;;;4.38;2.83;;;;;;;;;;4994568;28;20046;-79
2022/08/14 13:26:09;;;;;;;4.93;2.60;;;;;;;;;;4983989;28;20515;-79
2022/08/14 13:28:38;;;;;;;3.90;2.53;;;;;;;;;;4970319;28;20054;-79
2022/08/14 13:31:06;;;;;;;5.35;2.65;;;;;;;;;;4995244;28;20038;-79
2022/08/14 13:33:33;;;;;;;4.63;2.60;;;;;;;;;;4981361;28;20036;-80
2022/08/14 13:35:59;;;;;;;5.78;2.78;;;;;;;;;;4973203;28;20034;-78
2022/08/14 13:38:25;;;;;;;4.18;2.40;;;;;;;;;;5007591;28;20045;-78
2022/08/14 13:40:54;;;;;;;3.40;2.33;;;;;;;;;;4984860;28;20064;-79
2022/08/14 13:43:23;;;;;;;3.60;2.45;;;;;;;;;;4996797;28;20043;-79
2022/08/14 13:45:50;;;;;;;3.60;2.40;;;;;;;;;;4969639;28;20029;-79
2022/08/14 13:48:15;;;;;;;5.55;2.53;;;;;;;;;;4993972;28;20030;-79
2022/08/14 13:50:43;;;;;;;4.55;2.47;;;;;;;;;;5001900;28;20503;-79
2022/08/14 13:53:13;;;;;;;5.78;2.75;;;;;;;;;;4997215;28;20033;-79
2022/08/14 13:55:39;;;;;;;4.72;2.40;;;;;;;;;;5002587;28;20038;-78
2022/08/14 13:58:05;;;;;;;6.13;2.47;;;;;;;;;;4979737;28;20041;-79
2022/08/14 14:00:35;;;;;;;4.18;2.33;;;;;;;;;;4990371;28;20042;-79
2022/08/14 14:03:06;;;;;;;3.60;2.20;;;;;;;;;;4990814;28;20118;-79
2022/08/14 14:05:36;;;;;;;4.03;2.30;;;;;;;;;;4969774;28;20041;-78
2022/08/14 14:08:04;;;;;;;4.60;2.00;;;;;;;;;;4995843;28;20158;-79
2022/08/14 14:10:32;;;;;;;4.70;2.63;;;;;;;;;;4983741;28;20036;-78
2022/08/14 14:12:57;;;;;;;5.22;2.22;;;;;;;;;;4964889;28;20504;-78
2022/08/14 14:15:23;;;;;;;4.85;2.38;;;;;;;;;;4997431;28;20030;-80
2022/08/14 14:17:49;;;;;;;5.88;2.58;;;;;;;;;;4984432;28;20033;-79
2022/08/14 14:20:25;;;;;;;4.37;2.10;;;;;;;;;;4993426;28;20094;-78
2022/08/14 14:22:51;;;;;;;3.33;2.17;;;;;;;;;;4996393;28;20387;-78
2022/08/14 14:25:18;;;;;;;5.38;2.30;;;;;;;;;;4993776;28;20560;-78
2022/08/14 14:27:47;;;;;;;2.90;2.00;;;;;;;;;;4993277;28;20544;-79
2022/08/14 14:30:14;;;;;;;5.57;2.00;;;;;;;;;;4983862;28;20040;-79
2022/08/14 14:32:43;;;;;;;4.70;1.90;;;;;;;;;;4988015;28;20173;-79
2022/08/14 14:35:10;;;;;;;4.35;2.38;;;;;;;;;;4987895;28;20107;-79
2022/08/14 14:37:42;;;;;;;5.00;2.05;;;;;;;;;;5014933;28;20030;-79
2022/08/14 14:40:12;;;;;;;4.93;2.03;;;;;;;;;;4989464;28;20489;-78
2022/08/14 14:42:47;;;;;;;3.38;2.00;;;;;;;;;;4997242;28;20489;-78
2022/08/14 14:45:14;;;;;;;3.63;2.10;;;;;;;;;;5002411;28;20029;-79
2022/08/14 14:47:46;;;;;;;2.95;1.98;;;;;;;;;;4981989;28;20034;-78
2022/08/14 14:50:12;;;;;;;3.30;2.03;;;;;;;;;;5004001;28;20062;-78
2022/08/14 14:52:39;;;;;;;3.28;1.90;;;;;;;;;;4990251;28;20097;-78
2022/08/14 14:55:12;;;;;;;3.25;1.70;;;;;;;;;;4999445;28;20057;-77
2022/08/14 14:57:39;;;;;;;3.28;2.25;;;;;;;;;;4994933;28;20049;-78
2022/08/14 15:00:10;;;;;;;3.40;2.20;;;;;;;;;;5004496;28;20040;-78
2022/08/14 15:02:39;;;;;;;3.95;2.10;;;;;;;;;;4978076;28;20037;-78
2022/08/14 15:05:06;;;;;;;3.00;1.85;;;;;;;;;;4971807;28;20029;-79
2022/08/14 15:07:33;;;;;;;3.70;1.90;;;;;;;;;;4988185;28;20056;-78